sensor_id;sensor_type;location;lat;lon;timestamp;temperature;humidity
74520;DHT22;63002;48.134;-1.948;2023-09-07T05:00:08;26.50;60.10
74520;DHT22;63002;48.134;-1.948;2023-09-07T05:02:37;26.60;60.10
74520;DHT22;63002;48.134;-1.948;2023-09-07T05:05:07;26.50;60.20
74520;DHT22;63002;48.134;-1.948;2023-09-07T05:07:33;26.50;60.10
74520;DHT22;63002;48.134;-1.948;2023-09-07T05:09:59;26.50;60.20
74520;DHT22;63002;48.134;-1.948;2023-09-07T05:12:25;26.40;60.70
74520;DHT22;63002;48.134;-1.948;2023-09-07T05:14:50;26.20;61.10
74520;DHT22;63002;48.134;-1.948;2023-09-07T05:17:16;26.10;61.80
74520;DHT22;63002;48.134;-1.948;2023-09-07T05:19:42;26.00;61.90
74520;DHT22;63002;48.134;-1.948;2023-09-07T05:22:08;26.00;61.60
74520;DHT22;63002;48.134;-1.948;2023-09-07T05:24:33;25.80;62.20
74520;DHT22;63002;48.134;-1.948;2023-09-07T05:26:59;25.90;61.70
74520;DHT22;63002;48.134;-1.948;2023-09-07T05:29:25;26.00;61.50
74520;DHT22;63002;48.134;-1.948;2023-09-07T05:31:50;26.10;61.30
74520;DHT22;63002;48.134;-1.948;2023-09-07T05:34:16;26.20;61.10
74520;DHT22;63002;48.134;-1.948;2023-09-07T05:36:42;26.30;60.80
74520;DHT22;63002;48.134;-1.948;2023-09-07T05:39:07;26.30;60.70
74520;DHT22;63002;48.134;-1.948;2023-09-07T05:41:33;26.20;60.90
74520;DHT22;63002;48.134;-1.948;2023-09-07T05:43:59;26.10;61.20
74520;DHT22;63002;48.134;-1.948;2023-09-07T05:46:24;26.00;61.40
74520;DHT22;63002;48.134;-1.948;2023-09-07T05:48:51;26.20;61.00
74520;DHT22;63002;48.134;-1.948;2023-09-07T05:51:16;26.20;60.90
74520;DHT22;63002;48.134;-1.948;2023-09-07T05:53:42;26.30;60.80
74520;DHT22;63002;48.134;-1.948;2023-09-07T05:56:08;26.30;60.80
74520;DHT22;63002;48.134;-1.948;2023-09-07T05:58:33;26.30;60.60
74520;DHT22;63002;48.134;-1.948;2023-09-07T06:00:59;26.30;60.60
74520;DHT22;63002;48.134;-1.948;2023-09-07T06:03:25;26.30;60.60
74520;DHT22;63002;48.134;-1.948;2023-09-07T06:05:51;26.30;60.60
74520;DHT22;63002;48.134;-1.948;2023-09-07T06:08:17;26.30;60.50
74520;DHT22;63002;48.134;-1.948;2023-09-07T06:10:42;26.40;60.50
74520;DHT22;63002;48.134;-1.948;2023-09-07T06:13:08;26.40;60.50
74520;DHT22;63002;48.134;-1.948;2023-09-07T06:15:34;26.40;60.30
74520;DHT22;63002;48.134;-1.948;2023-09-07T06:18:00;26.10;61.20
74520;DHT22;63002;48.134;-1.948;2023-09-07T06:20:25;25.60;62.50
74520;DHT22;63002;48.134;-1.948;2023-09-07T06:22:51;25.40;63.20
74520;DHT22;63002;48.134;-1.948;2023-09-07T06:25:17;25.20;63.60
74520;DHT22;63002;48.134;-1.948;2023-09-07T06:27:42;25.10;64.10
74520;DHT22;63002;48.134;-1.948;2023-09-07T06:30:09;25.00;64.60
74520;DHT22;63002;48.134;-1.948;2023-09-07T06:32:35;25.00;64.70
74520;DHT22;63002;48.134;-1.948;2023-09-07T06:35:00;25.10;64.70
74520;DHT22;63002;48.134;-1.948;2023-09-07T06:37:26;25.10;64.50
74520;DHT22;63002;48.134;-1.948;2023-09-07T06:39:52;25.20;64.20
74520;DHT22;63002;48.134;-1.948;2023-09-07T06:42:17;25.30;63.60
74520;DHT22;63002;48.134;-1.948;2023-09-07T06:44:43;25.40;63.40
74520;DHT22;63002;48.134;-1.948;2023-09-07T06:47:10;25.50;63.20
74520;DHT22;63002;48.134;-1.948;2023-09-07T06:49:38;25.50;63.10
74520;DHT22;63002;48.134;-1.948;2023-09-07T06:52:03;25.50;62.90
74520;DHT22;63002;48.134;-1.948;2023-09-07T06:54:30;25.50;62.90
74520;DHT22;63002;48.134;-1.948;2023-09-07T06:56:56;25.60;62.80
74520;DHT22;63002;48.134;-1.948;2023-09-07T06:59:21;25.60;62.80
74520;DHT22;63002;48.134;-1.948;2023-09-07T07:01:47;25.60;62.80
74520;DHT22;63002;48.134;-1.948;2023-09-07T07:04:13;25.70;62.50
74520;DHT22;63002;48.134;-1.948;2023-09-07T07:06:38;25.80;62.40
74520;DHT22;63002;48.134;-1.948;2023-09-07T07:09:05;25.70;62.60
74520;DHT22;63002;48.134;-1.948;2023-09-07T07:11:31;25.80;62.50
74520;DHT22;63002;48.134;-1.948;2023-09-07T07:13:56;25.80;62.30
74520;DHT22;63002;48.134;-1.948;2023-09-07T07:16:22;25.90;62.20
74520;DHT22;63002;48.134;-1.948;2023-09-07T07:18:48;25.80;62.20
74520;DHT22;63002;48.134;-1.948;2023-09-07T07:21:13;25.90;62.10
74520;DHT22;63002;48.134;-1.948;2023-09-07T07:23:39;25.90;62.10
74520;DHT22;63002;48.134;-1.948;2023-09-07T07:26:05;25.90;62.20
74520;DHT22;63002;48.134;-1.948;2023-09-07T07:28:31;25.90;62.00
74520;DHT22;63002;48.134;-1.948;2023-09-07T07:30:57;25.90;62.10
74520;DHT22;63002;48.134;-1.948;2023-09-07T07:33:22;25.90;62.20
74520;DHT22;63002;48.134;-1.948;2023-09-07T07:35:48;25.90;62.00
74520;DHT22;63002;48.134;-1.948;2023-09-07T07:38:14;25.90;62.00
74520;DHT22;63002;48.134;-1.948;2023-09-07T07:40:40;26.00;62.00
74520;DHT22;63002;48.134;-1.948;2023-09-07T07:43:06;26.00;62.00
74520;DHT22;63002;48.134;-1.948;2023-09-07T07:45:32;26.00;61.90
74520;DHT22;63002;48.134;-1.948;2023-09-07T07:48:02;26.00;61.90
74520;DHT22;63002;48.134;-1.948;2023-09-07T07:50:31;26.00;61.90
74520;DHT22;63002;48.134;-1.948;2023-09-07T07:52:57;26.00;61.90
74520;DHT22;63002;48.134;-1.948;2023-09-07T07:55:22;26.00;61.80
74520;DHT22;63002;48.134;-1.948;2023-09-07T07:57:48;26.10;61.70
74520;DHT22;63002;48.134;-1.948;2023-09-07T08:00:14;26.00;61.90
74520;DHT22;63002;48.134;-1.948;2023-09-07T08:02:40;26.00;62.00
74520;DHT22;63002;48.134;-1.948;2023-09-07T08:05:06;25.90;62.20
74520;DHT22;63002;48.134;-1.948;2023-09-07T08:07:31;25.90;62.20
74520;DHT22;63002;48.134;-1.948;2023-09-07T08:09:57;25.90;62.30
74520;DHT22;63002;48.134;-1.948;2023-09-07T08:12:23;25.90;62.30
74520;DHT22;63002;48.134;-1.948;2023-09-07T08:14:48;25.90;62.30
74520;DHT22;63002;48.134;-1.948;2023-09-07T08:17:14;25.90;62.30
74520;DHT22;63002;48.134;-1.948;2023-09-07T08:19:40;25.90;62.30
74520;DHT22;63002;48.134;-1.948;2023-09-07T08:22:06;26.00;62.30
74520;DHT22;63002;48.134;-1.948;2023-09-07T08:24:32;26.00;62.10
74520;DHT22;63002;48.134;-1.948;2023-09-07T08:26:58;26.10;61.70
74520;DHT22;63002;48.134;-1.948;2023-09-07T08:29:25;26.10;61.70
74520;DHT22;63002;48.134;-1.948;2023-09-07T08:31:52;26.20;61.50
74520;DHT22;63002;48.134;-1.948;2023-09-07T08:34:18;26.20;61.50
74520;DHT22;63002;48.134;-1.948;2023-09-07T08:36:46;26.20;61.30
74520;DHT22;63002;48.134;-1.948;2023-09-07T08:39:12;26.20;61.40
74520;DHT22;63002;48.134;-1.948;2023-09-07T08:41:42;26.20;61.30
74520;DHT22;63002;48.134;-1.948;2023-09-07T08:44:18;26.20;61.40
74520;DHT22;63002;48.134;-1.948;2023-09-07T08:46:45;26.20;61.50
74520;DHT22;63002;48.134;-1.948;2023-09-07T08:49:11;26.20;61.40
74520;DHT22;63002;48.134;-1.948;2023-09-07T08:51:37;26.20;61.50
74520;DHT22;63002;48.134;-1.948;2023-09-07T08:54:07;26.20;61.40
74520;DHT22;63002;48.134;-1.948;2023-09-07T08:56:35;26.20;61.40
74520;DHT22;63002;48.134;-1.948;2023-09-07T08:59:01;26.20;61.30
74520;DHT22;63002;48.134;-1.948;2023-09-07T09:01:28;26.20;61.30
74520;DHT22;63002;48.134;-1.948;2023-09-07T09:03:57;26.20;61.20
74520;DHT22;63002;48.134;-1.948;2023-09-07T09:06:23;26.30;61.20
74520;DHT22;63002;48.134;-1.948;2023-09-07T09:08:52;26.30;61.20
74520;DHT22;63002;48.134;-1.948;2023-09-07T09:11:18;26.30;61.20
74520;DHT22;63002;48.134;-1.948;2023-09-07T09:13:45;26.30;61.20
74520;DHT22;63002;48.134;-1.948;2023-09-07T09:16:11;26.30;61.10
74520;DHT22;63002;48.134;-1.948;2023-09-07T09:18:38;26.30;61.20
74520;DHT22;63002;48.134;-1.948;2023-09-07T09:21:05;26.30;61.20
74520;DHT22;63002;48.134;-1.948;2023-09-07T09:23:37;26.30;61.20
74520;DHT22;63002;48.134;-1.948;2023-09-07T09:26:06;26.30;61.30
74520;DHT22;63002;48.134;-1.948;2023-09-07T09:28:32;26.30;61.30
74520;DHT22;63002;48.134;-1.948;2023-09-07T09:31:00;26.30;61.30
74520;DHT22;63002;48.134;-1.948;2023-09-07T09:33:26;26.40;61.20
74520;DHT22;63002;48.134;-1.948;2023-09-07T09:35:54;26.30;61.10
74520;DHT22;63002;48.134;-1.948;2023-09-07T09:38:20;26.40;61.10
74520;DHT22;63002;48.134;-1.948;2023-09-07T09:40:46;26.40;61.10
74520;DHT22;63002;48.134;-1.948;2023-09-07T09:43:13;26.40;61.10
74520;DHT22;63002;48.134;-1.948;2023-09-07T09:45:39;26.40;61.10
74520;DHT22;63002;48.134;-1.948;2023-09-07T09:48:05;26.40;61.10
74520;DHT22;63002;48.134;-1.948;2023-09-07T09:50:32;26.40;61.10
74520;DHT22;63002;48.134;-1.948;2023-09-07T09:53:06;26.40;61.00
74520;DHT22;63002;48.134;-1.948;2023-09-07T09:55:33;26.40;61.10
74520;DHT22;63002;48.134;-1.948;2023-09-07T09:57:59;26.50;60.90
74520;DHT22;63002;48.134;-1.948;2023-09-07T10:00:26;26.50;61.10
74520;DHT22;63002;48.134;-1.948;2023-09-07T10:05:52;26.70;61.10
74520;DHT22;63002;48.134;-1.948;2023-09-07T10:08:19;26.70;61.30
74520;DHT22;63002;48.134;-1.948;2023-09-07T10:10:49;26.80;60.90
74520;DHT22;63002;48.134;-1.948;2023-09-07T10:13:15;26.80;60.90
74520;DHT22;63002;48.134;-1.948;2023-09-07T10:15:41;26.90;61.00
74520;DHT22;63002;48.134;-1.948;2023-09-07T10:18:12;26.90;61.10
74520;DHT22;63002;48.134;-1.948;2023-09-07T10:20:57;27.00;61.10
74520;DHT22;63002;48.134;-1.948;2023-09-07T10:23:41;26.90;61.20
74520;DHT22;63002;48.134;-1.948;2023-09-07T10:26:17;26.80;61.30
74520;DHT22;63002;48.134;-1.948;2023-09-07T10:28:44;26.80;61.50
74520;DHT22;63002;48.134;-1.948;2023-09-07T10:31:14;26.80;61.20
74520;DHT22;63002;48.134;-1.948;2023-09-07T10:33:41;26.80;61.40
74520;DHT22;63002;48.134;-1.948;2023-09-07T10:36:07;26.80;61.00
74520;DHT22;63002;48.134;-1.948;2023-09-07T10:38:34;26.80;61.30
74520;DHT22;63002;48.134;-1.948;2023-09-07T10:41:04;26.80;61.40
74520;DHT22;63002;48.134;-1.948;2023-09-07T10:43:32;26.70;61.60
74520;DHT22;63002;48.134;-1.948;2023-09-07T10:45:59;26.70;61.40
74520;DHT22;63002;48.134;-1.948;2023-09-07T10:48:28;26.70;61.60
74520;DHT22;63002;48.134;-1.948;2023-09-07T10:50:54;26.80;61.60
74520;DHT22;63002;48.134;-1.948;2023-09-07T10:53:28;26.80;61.30
74520;DHT22;63002;48.134;-1.948;2023-09-07T10:55:56;26.80;61.40
74520;DHT22;63002;48.134;-1.948;2023-09-07T10:58:28;26.80;61.30
74520;DHT22;63002;48.134;-1.948;2023-09-07T11:00:55;26.80;61.20
74520;DHT22;63002;48.134;-1.948;2023-09-07T11:03:20;26.80;61.20
74520;DHT22;63002;48.134;-1.948;2023-09-07T11:05:46;26.80;61.10
74520;DHT22;63002;48.134;-1.948;2023-09-07T11:08:13;26.80;61.10
74520;DHT22;63002;48.134;-1.948;2023-09-07T11:10:40;26.80;61.00
74520;DHT22;63002;48.134;-1.948;2023-09-07T11:13:09;26.80;61.00
74520;DHT22;63002;48.134;-1.948;2023-09-07T11:15:35;26.90;60.80
74520;DHT22;63002;48.134;-1.948;2023-09-07T11:18:10;26.90;60.80
74520;DHT22;63002;48.134;-1.948;2023-09-07T11:20:36;26.90;60.80
74520;DHT22;63002;48.134;-1.948;2023-09-07T11:23:02;26.80;60.80
74520;DHT22;63002;48.134;-1.948;2023-09-07T11:25:38;26.90;61.00
74520;DHT22;63002;48.134;-1.948;2023-09-07T11:28:08;26.90;60.90
74520;DHT22;63002;48.134;-1.948;2023-09-07T11:30:34;26.90;61.20
74520;DHT22;63002;48.134;-1.948;2023-09-07T11:33:02;26.90;60.90
74520;DHT22;63002;48.134;-1.948;2023-09-07T11:35:28;27.00;60.70
74520;DHT22;63002;48.134;-1.948;2023-09-07T11:37:54;27.00;60.50
74520;DHT22;63002;48.134;-1.948;2023-09-07T11:40:19;27.00;60.90
74520;DHT22;63002;48.134;-1.948;2023-09-07T11:42:45;26.90;61.00
74520;DHT22;63002;48.134;-1.948;2023-09-07T11:45:11;27.00;60.80
74520;DHT22;63002;48.134;-1.948;2023-09-07T11:47:39;27.00;60.80
74520;DHT22;63002;48.134;-1.948;2023-09-07T11:50:05;27.00;60.70
74520;DHT22;63002;48.134;-1.948;2023-09-07T11:52:32;26.90;60.90
74520;DHT22;63002;48.134;-1.948;2023-09-07T11:54:58;26.90;60.90
74520;DHT22;63002;48.134;-1.948;2023-09-07T11:57:23;26.90;61.10
74520;DHT22;63002;48.134;-1.948;2023-09-07T11:59:50;27.00;61.00
74520;DHT22;63002;48.134;-1.948;2023-09-07T12:02:16;27.00;61.00
74520;DHT22;63002;48.134;-1.948;2023-09-07T12:04:43;27.00;61.00
74520;DHT22;63002;48.134;-1.948;2023-09-07T12:07:10;27.00;60.90
74520;DHT22;63002;48.134;-1.948;2023-09-07T12:09:35;27.10;60.80
74520;DHT22;63002;48.134;-1.948;2023-09-07T12:12:02;27.10;60.90
74520;DHT22;63002;48.134;-1.948;2023-09-07T12:14:28;27.10;60.80
74520;DHT22;63002;48.134;-1.948;2023-09-07T12:16:54;27.10;61.00
74520;DHT22;63002;48.134;-1.948;2023-09-07T12:19:19;27.10;61.00
74520;DHT22;63002;48.134;-1.948;2023-09-07T12:21:45;27.10;60.90
74520;DHT22;63002;48.134;-1.948;2023-09-07T12:24:11;27.20;61.10
74520;DHT22;63002;48.134;-1.948;2023-09-07T12:26:37;27.20;61.10
74520;DHT22;63002;48.134;-1.948;2023-09-07T12:29:04;27.20;61.00
74520;DHT22;63002;48.134;-1.948;2023-09-07T12:31:30;27.20;60.90
74520;DHT22;63002;48.134;-1.948;2023-09-07T12:33:57;27.30;61.00
74520;DHT22;63002;48.134;-1.948;2023-09-07T12:36:22;27.30;61.00
74520;DHT22;63002;48.134;-1.948;2023-09-07T12:38:48;27.30;61.00
74520;DHT22;63002;48.134;-1.948;2023-09-07T12:41:14;27.40;60.80
74520;DHT22;63002;48.134;-1.948;2023-09-07T12:43:41;27.30;60.70
74520;DHT22;63002;48.134;-1.948;2023-09-07T12:46:08;27.30;60.80
74520;DHT22;63002;48.134;-1.948;2023-09-07T12:48:35;27.30;60.80
74520;DHT22;63002;48.134;-1.948;2023-09-07T12:51:00;27.30;60.80
74520;DHT22;63002;48.134;-1.948;2023-09-07T12:53:26;27.30;60.90
74520;DHT22;63002;48.134;-1.948;2023-09-07T12:55:55;27.30;60.80
74520;DHT22;63002;48.134;-1.948;2023-09-07T12:58:21;27.30;60.60
74520;DHT22;63002;48.134;-1.948;2023-09-07T13:00:47;27.40;60.50
74520;DHT22;63002;48.134;-1.948;2023-09-07T13:03:16;27.40;60.40
74520;DHT22;63002;48.134;-1.948;2023-09-07T13:05:43;27.40;60.30
74520;DHT22;63002;48.134;-1.948;2023-09-07T13:08:10;27.40;60.30
74520;DHT22;63002;48.134;-1.948;2023-09-07T13:10:36;27.30;60.40
74520;DHT22;63002;48.134;-1.948;2023-09-07T13:13:02;27.30;60.50
74520;DHT22;63002;48.134;-1.948;2023-09-07T13:15:27;27.20;60.60
74520;DHT22;63002;48.134;-1.948;2023-09-07T13:17:53;27.20;60.60
74520;DHT22;63002;48.134;-1.948;2023-09-07T13:20:19;27.30;60.60
74520;DHT22;63002;48.134;-1.948;2023-09-07T13:22:45;27.30;60.40
74520;DHT22;63002;48.134;-1.948;2023-09-07T13:25:12;27.30;60.40
74520;DHT22;63002;48.134;-1.948;2023-09-07T13:27:38;27.30;60.30
74520;DHT22;63002;48.134;-1.948;2023-09-07T13:30:05;27.30;60.30
74520;DHT22;63002;48.134;-1.948;2023-09-07T13:32:31;27.30;60.20
74520;DHT22;63002;48.134;-1.948;2023-09-07T13:34:58;27.30;60.30
74520;DHT22;63002;48.134;-1.948;2023-09-07T13:37:23;27.30;60.50
74520;DHT22;63002;48.134;-1.948;2023-09-07T13:39:49;27.20;60.50
74520;DHT22;63002;48.134;-1.948;2023-09-07T13:42:15;27.20;60.60
74520;DHT22;63002;48.134;-1.948;2023-09-07T13:44:41;27.20;60.60
74520;DHT22;63002;48.134;-1.948;2023-09-07T13:47:06;27.20;60.70
74520;DHT22;63002;48.134;-1.948;2023-09-07T13:49:34;27.20;60.60
74520;DHT22;63002;48.134;-1.948;2023-09-07T13:51:59;27.30;60.60
74520;DHT22;63002;48.134;-1.948;2023-09-07T13:54:25;27.30;60.40
74520;DHT22;63002;48.134;-1.948;2023-09-07T13:56:51;27.40;60.40
74520;DHT22;63002;48.134;-1.948;2023-09-07T13:59:16;27.30;60.30
74520;DHT22;63002;48.134;-1.948;2023-09-07T14:01:42;27.30;60.60
74520;DHT22;63002;48.134;-1.948;2023-09-07T14:04:08;27.30;60.70
74520;DHT22;63002;48.134;-1.948;2023-09-07T14:06:34;27.40;60.80
74520;DHT22;63002;48.134;-1.948;2023-09-07T14:08:59;27.30;60.80
74520;DHT22;63002;48.134;-1.948;2023-09-07T14:11:25;27.30;60.90
74520;DHT22;63002;48.134;-1.948;2023-09-07T14:13:51;27.30;60.90
74520;DHT22;63002;48.134;-1.948;2023-09-07T14:16:20;27.30;60.90
74520;DHT22;63002;48.134;-1.948;2023-09-07T14:18:46;27.30;60.80
74520;DHT22;63002;48.134;-1.948;2023-09-07T14:21:16;27.30;60.70
74520;DHT22;63002;48.134;-1.948;2023-09-07T14:23:42;27.40;60.60
74520;DHT22;63002;48.134;-1.948;2023-09-07T14:26:08;27.30;60.70
74520;DHT22;63002;48.134;-1.948;2023-09-07T14:28:35;27.30;60.80
74520;DHT22;63002;48.134;-1.948;2023-09-07T14:31:03;27.30;60.90
74520;DHT22;63002;48.134;-1.948;2023-09-07T14:33:31;27.30;60.90
74520;DHT22;63002;48.134;-1.948;2023-09-07T14:35:58;27.40;60.80
74520;DHT22;63002;48.134;-1.948;2023-09-07T14:38:23;27.40;60.60
74520;DHT22;63002;48.134;-1.948;2023-09-07T14:40:49;27.50;60.50
74520;DHT22;63002;48.134;-1.948;2023-09-07T14:43:16;27.50;60.30
74520;DHT22;63002;48.134;-1.948;2023-09-07T14:45:43;27.50;60.30
74520;DHT22;63002;48.134;-1.948;2023-09-07T14:48:09;27.40;60.40
74520;DHT22;63002;48.134;-1.948;2023-09-07T14:50:35;27.40;60.40
74520;DHT22;63002;48.134;-1.948;2023-09-07T14:53:00;27.40;60.50
74520;DHT22;63002;48.134;-1.948;2023-09-07T14:55:26;27.30;60.60
74520;DHT22;63002;48.134;-1.948;2023-09-07T14:57:52;27.30;60.60
74520;DHT22;63002;48.134;-1.948;2023-09-07T15:00:18;27.30;60.50
74520;DHT22;63002;48.134;-1.948;2023-09-07T15:02:43;27.30;60.60
74520;DHT22;63002;48.134;-1.948;2023-09-07T15:05:09;27.40;60.30
74520;DHT22;63002;48.134;-1.948;2023-09-07T15:07:35;27.40;60.20
74520;DHT22;63002;48.134;-1.948;2023-09-07T15:10:00;27.40;60.30
74520;DHT22;63002;48.134;-1.948;2023-09-07T15:12:26;27.40;60.10
74520;DHT22;63002;48.134;-1.948;2023-09-07T15:14:52;27.40;60.30
74520;DHT22;63002;48.134;-1.948;2023-09-07T15:17:18;27.50;60.40
74520;DHT22;63002;48.134;-1.948;2023-09-07T15:19:44;27.40;60.40
74520;DHT22;63002;48.134;-1.948;2023-09-07T15:22:10;27.50;60.60
74520;DHT22;63002;48.134;-1.948;2023-09-07T15:24:36;27.50;60.40
74520;DHT22;63002;48.134;-1.948;2023-09-07T15:27:09;27.50;60.40
74520;DHT22;63002;48.134;-1.948;2023-09-07T15:29:36;27.50;60.40
74520;DHT22;63002;48.134;-1.948;2023-09-07T15:32:02;27.50;60.20
74520;DHT22;63002;48.134;-1.948;2023-09-07T15:34:27;27.50;60.20
74520;DHT22;63002;48.134;-1.948;2023-09-07T15:36:53;27.60;60.10
74520;DHT22;63002;48.134;-1.948;2023-09-07T15:39:19;27.60;60.10
74520;DHT22;63002;48.134;-1.948;2023-09-07T15:41:44;27.50;60.30
74520;DHT22;63002;48.134;-1.948;2023-09-07T15:44:10;27.50;60.30
74520;DHT22;63002;48.134;-1.948;2023-09-07T15:46:36;27.50;60.40
74520;DHT22;63002;48.134;-1.948;2023-09-07T15:49:03;27.50;60.40
74520;DHT22;63002;48.134;-1.948;2023-09-07T15:51:29;27.50;60.40
74520;DHT22;63002;48.134;-1.948;2023-09-07T15:53:54;27.50;60.50
74520;DHT22;63002;48.134;-1.948;2023-09-07T15:56:20;27.50;60.40
74520;DHT22;63002;48.134;-1.948;2023-09-07T15:58:46;27.50;60.30
74520;DHT22;63002;48.134;-1.948;2023-09-07T16:01:12;27.60;60.20
74520;DHT22;63002;48.134;-1.948;2023-09-07T16:03:37;27.60;60.10
74520;DHT22;63002;48.134;-1.948;2023-09-07T16:06:03;27.60;60.10
74520;DHT22;63002;48.134;-1.948;2023-09-07T16:08:29;27.50;60.20
74520;DHT22;63002;48.134;-1.948;2023-09-07T16:10:55;27.50;60.30
74520;DHT22;63002;48.134;-1.948;2023-09-07T16:13:21;27.50;60.40
74520;DHT22;63002;48.134;-1.948;2023-09-07T16:15:47;27.50;60.40
74520;DHT22;63002;48.134;-1.948;2023-09-07T16:18:13;27.50;60.40
74520;DHT22;63002;48.134;-1.948;2023-09-07T16:20:42;27.50;60.40
74520;DHT22;63002;48.134;-1.948;2023-09-07T16:23:09;27.50;60.30
74520;DHT22;63002;48.134;-1.948;2023-09-07T16:25:38;27.50;60.10
74520;DHT22;63002;48.134;-1.948;2023-09-07T16:28:04;27.60;60.10
74520;DHT22;63002;48.134;-1.948;2023-09-07T16:30:30;27.60;60.00
74520;DHT22;63002;48.134;-1.948;2023-09-07T16:32:56;27.60;60.10
74520;DHT22;63002;48.134;-1.948;2023-09-07T16:35:22;27.50;60.30
74520;DHT22;63002;48.134;-1.948;2023-09-07T16:37:47;27.50;60.30
74520;DHT22;63002;48.134;-1.948;2023-09-07T16:40:13;27.50;60.40
74520;DHT22;63002;48.134;-1.948;2023-09-07T16:42:41;27.50;60.40
74520;DHT22;63002;48.134;-1.948;2023-09-07T16:45:07;27.50;60.50
74520;DHT22;63002;48.134;-1.948;2023-09-07T16:47:33;27.50;60.40
74520;DHT22;63002;48.134;-1.948;2023-09-07T16:49:59;27.50;60.40
74520;DHT22;63002;48.134;-1.948;2023-09-07T16:52:25;27.40;60.40
74520;DHT22;63002;48.134;-1.948;2023-09-07T16:54:53;27.50;60.50
74520;DHT22;63002;48.134;-1.948;2023-09-07T16:57:19;27.50;60.40
74520;DHT22;63002;48.134;-1.948;2023-09-07T16:59:45;27.50;60.20
74520;DHT22;63002;48.134;-1.948;2023-09-07T17:02:12;27.60;60.20
74520;DHT22;63002;48.134;-1.948;2023-09-07T17:04:38;27.60;60.10
74520;DHT22;63002;48.134;-1.948;2023-09-07T17:07:05;27.60;60.10
74520;DHT22;63002;48.134;-1.948;2023-09-07T17:09:31;27.50;60.30
74520;DHT22;63002;48.134;-1.948;2023-09-07T17:12:00;27.50;60.30
74520;DHT22;63002;48.134;-1.948;2023-09-07T17:14:27;27.50;60.40
74520;DHT22;63002;48.134;-1.948;2023-09-07T17:16:53;27.50;60.50
74520;DHT22;63002;48.134;-1.948;2023-09-07T17:19:22;27.50;60.60
74520;DHT22;63002;48.134;-1.948;2023-09-07T17:21:49;27.50;60.50
74520;DHT22;63002;48.134;-1.948;2023-09-07T17:24:16;27.50;60.60
74520;DHT22;63002;48.134;-1.948;2023-09-07T17:26:41;27.60;60.50
74520;DHT22;63002;48.134;-1.948;2023-09-07T17:29:07;27.60;60.50
74520;DHT22;63002;48.134;-1.948;2023-09-07T17:31:33;27.60;60.40
74520;DHT22;63002;48.134;-1.948;2023-09-07T17:33:59;27.70;60.40
74520;DHT22;63002;48.134;-1.948;2023-09-07T17:36:24;27.60;60.40
74520;DHT22;63002;48.134;-1.948;2023-09-07T17:38:52;27.60;60.50
74520;DHT22;63002;48.134;-1.948;2023-09-07T17:43:48;27.60;60.50
74520;DHT22;63002;48.134;-1.948;2023-09-07T17:46:13;27.60;60.50
74520;DHT22;63002;48.134;-1.948;2023-09-07T17:48:39;27.60;60.40
74520;DHT22;63002;48.134;-1.948;2023-09-07T17:51:05;27.60;60.40
74520;DHT22;63002;48.134;-1.948;2023-09-07T17:53:33;27.60;60.40
74520;DHT22;63002;48.134;-1.948;2023-09-07T17:56:07;27.70;60.20
74520;DHT22;63002;48.134;-1.948;2023-09-07T17:58:38;27.70;60.50
74520;DHT22;63002;48.134;-1.948;2023-09-07T18:01:05;27.70;60.50
74520;DHT22;63002;48.134;-1.948;2023-09-07T18:03:34;27.70;60.30
74520;DHT22;63002;48.134;-1.948;2023-09-07T18:06:00;27.80;60.30
74520;DHT22;63002;48.134;-1.948;2023-09-07T18:08:26;27.80;60.30
74520;DHT22;63002;48.134;-1.948;2023-09-07T18:10:52;27.80;60.30
74520;DHT22;63002;48.134;-1.948;2023-09-07T18:13:17;27.80;60.40
74520;DHT22;63002;48.134;-1.948;2023-09-07T18:15:45;27.80;60.40
74520;DHT22;63002;48.134;-1.948;2023-09-07T18:18:10;27.80;60.40
74520;DHT22;63002;48.134;-1.948;2023-09-07T18:20:36;27.80;60.20
74520;DHT22;63002;48.134;-1.948;2023-09-07T18:23:02;27.80;60.00
74520;DHT22;63002;48.134;-1.948;2023-09-07T18:25:28;27.80;60.00
74520;DHT22;63002;48.134;-1.948;2023-09-07T18:27:54;27.80;60.00
74520;DHT22;63002;48.134;-1.948;2023-09-07T18:30:20;27.80;60.00
74520;DHT22;63002;48.134;-1.948;2023-09-07T18:32:46;27.80;60.20
74520;DHT22;63002;48.134;-1.948;2023-09-07T18:35:13;27.70;60.30
74520;DHT22;63002;48.134;-1.948;2023-09-07T18:37:39;27.80;60.20
74520;DHT22;63002;48.134;-1.948;2023-09-07T18:40:06;27.80;60.00
74520;DHT22;63002;48.134;-1.948;2023-09-07T18:42:32;27.80;59.60
74520;DHT22;63002;48.134;-1.948;2023-09-07T18:44:57;27.80;59.70
74520;DHT22;63002;48.134;-1.948;2023-09-07T18:47:24;27.80;59.20
74520;DHT22;63002;48.134;-1.948;2023-09-07T18:49:50;27.80;59.00
74520;DHT22;63002;48.134;-1.948;2023-09-07T18:52:16;27.80;58.80
74520;DHT22;63002;48.134;-1.948;2023-09-07T18:54:42;27.70;58.70
74520;DHT22;63002;48.134;-1.948;2023-09-07T18:57:08;27.70;58.50
74520;DHT22;63002;48.134;-1.948;2023-09-07T18:59:33;27.70;58.50
74520;DHT22;63002;48.134;-1.948;2023-09-07T19:02:02;27.60;58.30
74520;DHT22;63002;48.134;-1.948;2023-09-07T19:04:28;27.50;58.00
74520;DHT22;63002;48.134;-1.948;2023-09-07T19:06:57;27.40;57.80
74520;DHT22;63002;48.134;-1.948;2023-09-07T19:09:23;27.40;57.70
74520;DHT22;63002;48.134;-1.948;2023-09-07T19:11:49;27.40;58.00
74520;DHT22;63002;48.134;-1.948;2023-09-07T19:14:15;27.50;58.20
74520;DHT22;63002;48.134;-1.948;2023-09-07T19:16:41;27.50;58.30
74520;DHT22;63002;48.134;-1.948;2023-09-07T19:19:07;27.50;58.30
74520;DHT22;63002;48.134;-1.948;2023-09-07T19:21:32;27.50;58.30
74520;DHT22;63002;48.134;-1.948;2023-09-07T19:23:58;27.50;58.60
74520;DHT22;63002;48.134;-1.948;2023-09-07T19:26:29;27.50;58.90
74520;DHT22;63002;48.134;-1.948;2023-09-07T19:28:55;27.60;58.80
74520;DHT22;63002;48.134;-1.948;2023-09-07T19:31:22;27.60;58.50
74520;DHT22;63002;48.134;-1.948;2023-09-07T19:33:52;27.40;58.00
74520;DHT22;63002;48.134;-1.948;2023-09-07T19:36:18;27.40;58.60
74520;DHT22;63002;48.134;-1.948;2023-09-07T19:38:44;27.40;58.70
74520;DHT22;63002;48.134;-1.948;2023-09-07T19:41:10;27.40;58.90
74520;DHT22;63002;48.134;-1.948;2023-09-07T19:43:35;27.40;58.90
74520;DHT22;63002;48.134;-1.948;2023-09-07T19:46:01;27.50;58.90
74520;DHT22;63002;48.134;-1.948;2023-09-07T19:48:27;27.50;59.00
74520;DHT22;63002;48.134;-1.948;2023-09-07T19:50:52;27.50;59.00
74520;DHT22;63002;48.134;-1.948;2023-09-07T19:53:18;27.40;59.00
74520;DHT22;63002;48.134;-1.948;2023-09-07T19:55:44;27.40;59.00
74520;DHT22;63002;48.134;-1.948;2023-09-07T19:58:09;27.40;59.10
74520;DHT22;63002;48.134;-1.948;2023-09-07T20:00:36;27.40;59.10
74520;DHT22;63002;48.134;-1.948;2023-09-07T20:03:02;27.40;59.10
74520;DHT22;63002;48.134;-1.948;2023-09-07T20:05:28;27.40;59.20
74520;DHT22;63002;48.134;-1.948;2023-09-07T20:07:54;27.40;59.20
74520;DHT22;63002;48.134;-1.948;2023-09-07T20:10:20;27.40;59.00
74520;DHT22;63002;48.134;-1.948;2023-09-07T20:12:48;27.40;59.00
74520;DHT22;63002;48.134;-1.948;2023-09-07T20:15:14;27.40;59.00